Time;durP1;ratioP1;P1;durP2;ratioP2;P2;SDS_P1;SDS_P2;PMS_P1;PMS_P2;Temp;Humidity;BMP_temperature;BMP_pressure;BME280_temperature;BME280_humidity;BME280_pressure;Samples;Min_cycle;Max_cycle;Signal;HPM_P1;HPM_P2
2024/01/15 00:01:37;;;;;;;2.17;2.00;;;-7.20;99.90;-5.70;95292.00;;;;5043848;28;20725;-69
2024/01/15 00:04:26;;;;;;;1.50;1.47;;;-7.10;99.90;-6.30;95295.00;;;;5047341;28;20213;-71
2024/01/15 00:07:15;;;;;;;1.98;1.88;;;-7.10;99.90;-5.70;95292.00;;;;5043441;28;20435;-69
2024/01/15 00:10:05;;;;;;;1.50;1.40;;;-7.10;99.90;-6.20;95285.00;;;;5048017;28;20606;-71
2024/01/15 00:12:55;;;;;;;1.10;1.10;;;-7.10;99.90;-6.30;95293.00;;;;5044669;28;20447;-70
2024/01/15 00:15:44;;;;;;;1.40;1.33;;;-7.20;99.90;-5.60;95298.00;;;;5033690;28;20209;-67
2024/01/15 00:18:33;;;;;;;1.10;1.10;;;-7.10;99.90;-5.60;95281.00;;;;5039786;28;20231;-70
2024/01/15 00:21:23;;;;;;;1.90;1.80;;;-7.10;99.90;-6.00;95280.00;;;;5035353;28;20439;-69
2024/01/15 00:24:12;;;;;;;1.97;1.87;;;-7.10;99.90;-6.50;95276.00;;;;5045675;28;20435;-71
2024/01/15 00:27:01;;;;;;;1.02;1.02;;;-7.20;99.90;-5.80;95275.00;;;;5046858;28;20432;-69
2024/01/15 00:29:51;;;;;;;1.50;1.40;;;-8.10;99.90;-5.70;95280.00;;;;5044829;28;20225;-70
2024/01/15 00:32:40;;;;;;;1.48;1.42;;;-7.00;99.90;-6.00;95282.00;;;;5048851;28;20430;-71
2024/01/15 00:35:29;;;;;;;2.57;2.47;;;-7.00;99.90;-5.70;95274.00;;;;5043576;28;20201;-70
2024/01/15 00:38:18;;;;;;;2.60;2.50;;;-7.00;99.90;-6.20;95269.00;;;;5045919;28;20442;-71
2024/01/15 00:41:07;;;;;;;1.23;1.23;;;-7.10;99.90;-5.70;95274.00;;;;5024245;28;20225;-70
2024/01/15 00:43:56;;;;;;;1.67;1.57;;;-7.10;99.90;-5.10;95280.00;;;;5045395;28;20256;-70
2024/01/15 00:46:47;;;;;;;1.50;1.40;;;-7.00;99.90;-5.30;95272.00;;;;5034143;28;20421;-70
2024/01/15 00:49:36;;;;;;;1.50;1.40;;;-7.00;99.90;-5.10;95279.00;;;;5044024;28;21046;-70
2024/01/15 00:52:25;;;;;;;2.53;2.33;;;-6.90;99.90;-4.90;95270.00;;;;5040659;28;20430;-70
2024/01/15 00:55:13;;;;;;;2.27;2.17;;;-6.80;99.90;-4.80;95270.00;;;;5045981;28;20423;-69
2024/01/15 00:58:02;;;;;;;1.57;1.47;;;-6.70;99.90;-5.30;95265.00;;;;5045259;28;20807;-70
2024/01/15 01:00:51;;;;;;;1.47;1.37;;;-6.70;99.90;-5.10;95264.00;;;;5046987;28;20451;-70
2024/01/15 01:03:41;;;;;;;2.00;1.90;;;-6.70;99.90;-5.10;95254.00;;;;5022547;28;20536;-69
2024/01/15 01:06:30;;;;;;;0.90;0.90;;;-6.80;99.90;-5.90;95211.00;;;;5039182;28;20488;-70
2024/01/15 01:09:20;;;;;;;1.93;1.83;;;-6.90;99.90;-6.40;95201.00;;;;5042501;28;20436;-69
2024/01/15 01:12:09;;;;;;;1.10;1.10;;;-7.00;99.90;-6.60;95208.00;;;;5041924;28;20474;-70
2024/01/15 01:14:58;;;;;;;1.00;1.00;;;-7.10;99.90;-6.00;95216.00;;;;5042165;28;20434;-70
2024/01/15 01:17:47;;;;;;;1.37;1.30;;;-7.10;99.90;-5.90;95212.00;;;;5041555;28;20424;-69
2024/01/15 01:20:38;;;;;;;1.27;1.23;;;-7.00;99.90;-6.10;95206.00;;;;5034510;28;20442;-69
2024/01/15 01:23:26;;;;;;;1.40;1.40;;;-7.00;99.90;-6.60;95184.00;;;;5042435;28;20724;-69
2024/01/15 01:26:17;;;;;;;1.33;1.30;;;-7.10;99.90;-6.00;95184.00;;;;5044610;28;20663;-69
2024/01/15 01:29:06;;;;;;;1.30;1.30;;;-7.10;99.90;-5.90;95183.00;;;;5032537;28;20432;-69
2024/01/15 01:31:56;;;;;;;0.90;0.90;;;-7.10;99.90;-5.50;95171.00;;;;5046106;28;20467;-70
2024/01/15 01:34:45;;;;;;;1.97;1.87;;;-7.10;99.90;-5.50;95187.00;;;;5046050;28;20431;-70
2024/01/15 01:37:35;;;;;;;1.43;1.33;;;-7.00;99.90;-5.20;95182.00;;;;5046159;28;21048;-70
2024/01/15 01:40:24;;;;;;;1.73;1.63;;;-6.80;99.90;-4.80;95176.00;;;;5044617;28;20451;-69
2024/01/15 01:43:12;;;;;;;2.37;2.17;;;-6.70;99.90;-4.70;95194.00;;;;5036508;28;20956;-69
2024/01/15 01:46:03;;;;;;;1.47;1.37;;;-6.60;99.90;-5.20;95176.00;;;;5039637;28;20439;-70
2024/01/15 01:48:52;;;;;;;2.03;1.93;;;-6.60;99.90;-4.80;95172.00;;;;5040702;28;20443;-70
2024/01/15 01:51:41;;;;;;;3.27;2.97;;;-6.50;99.90;-4.40;95164.00;;;;5033406;28;20472;-70
2024/01/15 01:54:33;;;;;;;2.50;2.30;;;-6.40;99.90;-4.60;95166.00;;;;5044080;28;20428;-69
2024/01/15 01:57:22;;;;;;;2.27;2.17;;;-6.30;99.90;-5.00;95165.00;;;;5040593;28;20431;-70
2024/01/15 02:00:13;;;;;;;1.80;1.67;;;-6.40;99.90;-5.00;95165.00;;;;5032964;28;20446;-70
2024/01/15 02:03:04;;;;;;;1.90;1.80;;;-6.30;99.90;-5.30;95145.00;;;;5027851;28;20425;-70
2024/01/15 02:05:53;;;;;;;1.83;1.73;;;-6.40;99.90;-5.80;95153.00;;;;5042104;28;20432;-71
2024/01/15 02:08:45;;;;;;;1.47;1.37;;;-6.40;99.90;-5.90;95154.00;;;;5045975;28;20420;-68
2024/01/15 02:11:35;;;;;;;1.63;1.53;;;-6.50;99.90;-4.80;95154.00;;;;5036634;28;20484;-71
2024/01/15 02:14:24;;;;;;;2.37;2.27;;;-6.50;99.90;-4.80;95157.00;;;;5038982;28;20428;-70
2024/01/15 02:17:13;;;;;;;1.97;1.87;;;-6.40;99.90;-4.90;95160.00;;;;5045336;28;20427;-69
2024/01/15 02:20:02;;;;;;;1.87;1.77;;;-6.40;99.90;-5.90;95141.00;;;;5040380;28;20951;-69
2024/01/15 02:22:51;;;;;;;1.80;1.70;;;-6.40;99.90;-5.90;95149.00;;;;5039069;28;20420;-68
2024/01/15 02:25:44;;;;;;;1.83;1.73;;;-6.40;99.90;-6.30;95153.00;;;;5041485;28;20428;-71
2024/01/15 02:28:35;;;;;;;1.90;1.80;;;-6.60;99.90;-5.00;95161.00;;;;5035404;28;20428;-68
2024/01/15 02:31:23;;;;;;;2.00;1.90;;;-6.50;99.90;-5.30;95144.00;;;;5034952;28;20474;-69
2024/01/15 02:34:12;;;;;;;2.93;2.70;;;-6.50;99.90;-5.30;95125.00;;;;5043034;28;20455;-69
2024/01/15 02:37:01;;;;;;;1.67;1.57;;;-6.50;99.90;-5.00;95115.00;;;;5043460;28;20419;-68
2024/01/15 02:39:51;;;;;;;1.70;1.60;;;-6.40;99.90;-4.60;95108.00;;;;5043663;28;21062;-69
2024/01/15 02:42:41;;;;;;;1.87;1.73;;;-6.30;99.90;-4.50;95110.00;;;;5021120;28;20427;-70
2024/01/15 02:45:30;;;;;;;1.37;1.27;;;-6.10;99.90;-4.70;95107.00;;;;5038271;28;20436;-69
2024/01/15 02:48:18;;;;;;;3.00;2.70;;;-6.00;99.90;-4.80;95100.00;;;;5040084;28;20419;-69
2024/01/15 02:51:07;;;;;;;2.17;1.97;;;-6.20;99.90;-4.80;95085.00;;;;5047643;28;20467;-71
2024/01/15 02:53:56;;;;;;;3.17;2.87;;;-6.10;99.90;-5.70;95091.00;;;;5043351;28;20434;-68
2024/01/15 02:56:45;;;;;;;1.90;1.80;;;-5.90;99.90;-4.80;95088.00;;;;5038309;28;20431;-69
2024/01/15 02:59:35;;;;;;;1.40;1.30;;;-6.10;99.90;-4.90;95091.00;;;;5043463;28;21078;-69
2024/01/15 03:02:24;;;;;;;3.60;3.30;;;-7.80;99.90;-5.10;95095.00;;;;5039320;28;20430;-69
2024/01/15 03:05:13;;;;;;;2.70;2.23;;;-6.10;99.90;-5.20;95090.00;;;;5042815;28;20984;-67
2024/01/15 03:08:02;;;;;;;1.63;1.53;;;-6.40;99.90;-4.40;95109.00;;;;5025134;28;20856;-69
2024/01/15 03:10:51;;;;;;;2.23;2.03;;;-6.20;99.90;-4.50;95105.00;;;;5046367;28;20447;-68
2024/01/15 03:13:40;;;;;;;1.47;1.37;;;-6.10;99.90;-4.40;95081.00;;;;5038310;28;20446;-69
2024/01/15 03:16:30;;;;;;;2.40;2.20;;;-6.10;99.90;-4.00;95098.00;;;;5045484;28;20435;-69
2024/01/15 03:19:20;;;;;;;3.10;2.73;;;-6.00;99.90;-3.50;95089.00;;;;5043442;28;20435;-69
2024/01/15 03:22:09;;;;;;;1.83;1.67;;;-5.70;99.90;-3.80;95105.00;;;;5039029;28;20447;-70
2024/01/15 03:24:59;;;;;;;1.90;1.70;;;-5.50;99.90;-4.30;95094.00;;;;5041598;28;20423;-71
2024/01/15 03:27:47;;;;;;;2.27;2.00;;;-5.40;99.90;-3.90;95084.00;;;;5039582;28;20957;-70
2024/01/15 03:30:37;;;;;;;1.63;1.53;;;-5.80;99.90;-4.00;95084.00;;;;5039283;28;20448;-70
2024/01/15 03:33:27;;;;;;;3.47;2.90;;;-5.60;99.90;-4.30;95091.00;;;;5039377;28;20432;-69
2024/01/15 03:36:16;;;;;;;4.40;3.60;;;-5.20;99.90;-4.20;95082.00;;;;5036378;28;20442;-70
2024/01/15 03:39:05;;;;;;;2.00;1.80;;;-5.80;99.90;-3.90;95088.00;;;;5037953;28;20462;-69
2024/01/15 03:41:53;;;;;;;3.27;2.97;;;-5.60;99.90;-4.20;95098.00;;;;5045004;28;20450;-70
2024/01/15 03:44:42;;;;;;;3.43;3.07;;;-5.50;99.90;-4.50;95080.00;;;;5039740;28;20420;-70
2024/01/15 03:47:31;;;;;;;1.63;1.47;;;-5.50;99.90;-4.30;95075.00;;;;5044809;28;20435;-68
2024/01/15 03:50:21;;;;;;;3.13;2.83;;;-5.40;99.90;-4.00;95095.00;;;;5042171;28;20828;-69
2024/01/15 03:53:10;;;;;;;2.33;2.20;;;-5.30;99.90;-3.90;95075.00;;;;5038888;28;20466;-71
2024/01/15 03:55:59;;;;;;;1.77;1.67;;;-5.20;99.90;-3.50;95077.00;;;;5038044;28;20974;-70
2024/01/15 03:58:48;;;;;;;2.10;1.90;;;-5.20;99.90;-3.90;95060.00;;;;5045283;28;20428;-71
2024/01/15 04:01:36;;;;;;;2.47;2.20;;;-5.20;99.90;-4.10;95062.00;;;;5041421;28;20440;-70
2024/01/15 04:04:25;;;;;;;2.67;2.47;;;-5.20;99.90;-4.10;95061.00;;;;5045226;28;20439;-70
2024/01/15 04:07:16;;;;;;;2.37;2.07;;;-5.20;99.90;-3.90;95062.00;;;;5042534;28;20423;-70
2024/01/15 04:10:05;;;;;;;2.30;2.10;;;-5.20;99.90;-3.60;95059.00;;;;5045770;28;20453;-69
2024/01/15 04:12:54;;;;;;;2.50;2.30;;;-5.20;99.90;-3.30;95064.00;;;;5041379;28;20459;-69
2024/01/15 04:15:43;;;;;;;1.63;1.53;;;-5.10;99.90;-3.50;95057.00;;;;5040552;28;20424;-69
2024/01/15 04:18:32;;;;;;;1.87;1.70;;;-5.00;99.90;-3.60;95062.00;;;;5044943;28;20950;-70
2024/01/15 04:21:21;;;;;;;2.30;2.10;;;-5.10;99.90;-3.20;95064.00;;;;5040942;28;20458;-70
2024/01/15 04:24:11;;;;;;;1.60;1.50;;;-5.00;99.90;-2.90;95062.00;;;;5031536;28;20432;-70
2024/01/15 04:27:00;;;;;;;2.50;2.30;;;-4.90;99.90;-3.10;95071.00;;;;5047979;28;20431;-70
2024/01/15 04:29:49;;;;;;;2.13;1.93;;;-4.90;99.90;-3.20;95053.00;;;;5044598;28;20434;-70
2024/01/15 04:32:38;;;;;;;2.20;1.97;;;-4.80;99.90;-3.20;95067.00;;;;5051339;22;20496;-71
2024/01/15 04:35:27;;;;;;;3.03;2.53;;;-4.80;99.90;-3.80;95074.00;;;;5024077;28;20482;-73
2024/01/15 04:38:16;;;;;;;5.23;3.90;;;-4.80;99.90;-4.10;95066.00;;;;5027279;28;21159;-72
2024/01/15 04:41:06;;;;;;;2.17;1.93;;;-4.90;99.90;-3.90;95068.00;;;;5028668;28;20416;-72
2024/01/15 04:43:55;;;;;;;2.53;2.17;;;-4.90;99.90;-4.10;95066.00;;;;5003334;28;20805;-73
2024/01/15 04:46:44;;;;;;;2.73;2.30;;;-4.90;99.90;-3.60;95072.00;;;;5006278;28;20429;-71
2024/01/15 04:49:33;;;;;;;2.00;1.70;;;-4.90;99.90;-3.00;95068.00;;;;5005544;28;20433;-71
2024/01/15 04:52:22;;;;;;;5.70;3.90;;;-4.80;99.90;-2.80;95077.00;;;;5007523;28;21006;-71
2024/01/15 04:55:11;;;;;;;2.17;1.80;;;-4.70;99.90;-2.90;95066.00;;;;5001966;28;20433;-71
2024/01/15 04:58:01;;;;;;;2.47;1.90;;;-4.60;99.90;-3.50;95060.00;;;;5008690;28;20433;-73
2024/01/15 05:00:50;;;;;;;3.83;2.73;;;-4.60;99.90;-3.60;95068.00;;;;5003755;28;20483;-71
2024/01/15 05:03:39;;;;;;;5.00;3.27;;;-4.60;99.90;-3.70;95060.00;;;;5003824;28;20433;-72
2024/01/15 05:06:28;;;;;;;4.27;2.97;;;-4.60;99.90;-3.50;95065.00;;;;5002645;28;20433;-72
2024/01/15 05:09:17;;;;;;;4.70;3.00;;;-4.50;99.90;-4.00;95066.00;;;;5006130;28;20429;-70
2024/01/15 05:12:07;;;;;;;3.00;2.10;;;-4.70;99.90;-3.90;95068.00;;;;5003886;28;20472;-71
2024/01/15 05:14:57;;;;;;;3.13;2.00;;;-4.80;99.90;-3.80;95063.00;;;;5008912;28;20981;-69
2024/01/15 05:17:46;;;;;;;5.67;3.40;;;-4.80;99.90;-3.30;95067.00;;;;5006262;28;20809;-70
2024/01/15 05:20:35;;;;;;;2.80;1.90;;;-4.80;99.90;-2.90;95083.00;;;;4994560;28;20426;-69
2024/01/15 05:23:23;;;;;;;4.50;2.87;;;-4.70;99.90;-2.80;95074.00;;;;4999679;28;20453;-72
2024/01/15 05:26:12;;;;;;;7.00;4.07;;;-4.70;99.90;-3.10;95071.00;;;;5007117;28;20449;-70
2024/01/15 05:29:01;;;;;;;3.70;2.23;;;-4.60;99.90;-3.00;95076.00;;;;5008534;28;20950;-72
2024/01/15 05:31:51;;;;;;;7.63;4.30;;;-4.60;99.90;-3.10;95080.00;;;;5010364;28;20471;-70
2024/01/15 05:34:41;;;;;;;8.07;4.23;;;-4.30;99.90;-3.00;95076.00;;;;5006617;28;20430;-70
2024/01/15 05:37:30;;;;;;;6.67;3.87;;;-4.40;99.90;-2.70;95076.00;;;;5002577;28;20437;-70
2024/01/15 05:40:19;;;;;;;7.93;4.33;;;-4.30;99.90;-2.50;95088.00;;;;5004035;28;20437;-70
2024/01/15 05:43:08;;;;;;;4.80;2.80;;;-4.20;99.90;-4.00;95083.00;;;;4999123;28;20457;-72
2024/01/15 05:45:57;;;;;;;5.07;2.57;;;-4.30;99.90;-3.60;95073.00;;;;5005968;28;20445;-71
2024/01/15 05:48:47;;;;;;;5.70;2.93;;;-4.40;99.90;-3.80;95073.00;;;;5006471;28;20426;-70
2024/01/15 05:51:36;;;;;;;6.67;3.20;;;-4.50;99.90;-3.60;95079.00;;;;5004767;28;20978;-70
2024/01/15 05:54:25;;;;;;;11.50;4.97;;;-4.50;99.90;-2.70;95083.00;;;;4998792;28;20469;-71
2024/01/15 05:57:14;;;;;;;8.97;3.93;;;-4.40;99.90;-3.10;95097.00;;;;4994091;28;20461;-72
2024/01/15 06:00:03;;;;;;;6.93;3.03;;;-4.40;99.90;-3.80;95072.00;;;;4980138;28;20434;-69
2024/01/15 06:02:52;;;;;;;6.20;2.90;;;-4.50;99.90;-3.20;95084.00;;;;5005488;28;20460;-70
2024/01/15 06:05:43;;;;;;;9.30;3.87;;;-4.50;99.90;-2.90;95077.00;;;;5003393;28;20437;-71
2024/01/15 06:08:31;;;;;;;14.70;5.77;;;-4.40;99.90;-2.80;95077.00;;;;4997454;28;20433;-70
2024/01/15 06:11:20;;;;;;;14.73;5.83;;;-4.40;99.90;-3.10;95081.00;;;;4977268;28;20422;-70
2024/01/15 06:14:09;;;;;;;8.87;3.80;;;-4.40;99.90;-3.70;95068.00;;;;5000956;28;20465;-72
2024/01/15 06:16:58;;;;;;;13.07;8.50;;;-4.60;99.90;-4.00;95067.00;;;;4996641;28;20443;-71
2024/01/15 06:19:47;;;;;;;23.00;16.10;;;-4.60;99.90;-3.30;95068.00;;;;5005183;28;20457;-71
2024/01/15 06:22:39;;;;;;;56.67;23.70;;;-4.60;99.90;-3.40;95072.00;;;;4986530;28;21144;-69
2024/01/15 06:25:28;;;;;;;54.23;22.43;;;-4.70;99.90;-3.40;95082.00;;;;4990066;28;20449;-70
2024/01/15 06:28:16;;;;;;;19.43;13.43;;;-4.70;99.90;-3.70;95086.00;;;;4994486;28;20427;-71
2024/01/15 06:31:07;;;;;;;5.77;3.07;;;-4.70;99.90;-3.70;95073.00;;;;4991160;28;20460;-70
2024/01/15 06:33:57;;;;;;;5.53;3.20;;;-4.80;99.90;-3.30;95070.00;;;;4986554;28;21001;-71
2024/01/15 06:36:46;;;;;;;5.07;2.73;;;-4.80;99.90;-3.00;95082.00;;;;4984318;28;20449;-70
2024/01/15 06:39:36;;;;;;;6.37;3.37;;;-4.70;99.90;-3.40;95087.00;;;;4997930;28;21363;-69
2024/01/15 06:42:26;;;;;;;38.47;17.67;;;-4.60;99.90;-2.90;95097.00;;;;4965214;28;20932;-71
2024/01/15 06:45:15;;;;;;;7.63;3.80;;;-4.50;99.90;-2.40;95108.00;;;;4987716;28;20433;-72
2024/01/15 06:48:05;;;;;;;7.27;3.40;;;-4.40;99.90;-2.70;95108.00;;;;4997179;28;20442;-71
2024/01/15 06:50:54;;;;;;;9.00;3.93;;;-4.20;99.90;-3.70;95099.00;;;;5004283;28;21095;-71
2024/01/15 06:53:43;;;;;;;14.97;9.63;;;-4.30;99.90;-3.50;95103.00;;;;5001403;28;20460;-70
2024/01/15 06:56:33;;;;;;;72.33;40.90;;;-4.40;99.90;-3.30;95106.00;;;;5006175;28;20434;-71
2024/01/15 06:59:22;;;;;;;38.90;21.23;;;-4.40;99.90;-3.40;95118.00;;;;5004301;28;20425;-71
2024/01/15 07:02:11;;;;;;;22.10;11.47;;;-4.40;99.90;-2.50;95131.00;;;;4966397;28;20869;-69
2024/01/15 07:04:59;;;;;;;26.40;12.23;;;-4.40;99.90;-2.40;95139.00;;;;4973265;28;20437;-71
2024/01/15 07:07:48;;;;;;;20.77;10.50;;;-4.30;99.90;-2.50;95140.00;;;;4961127;28;20939;-71
2024/01/15 07:10:37;;;;;;;19.57;10.87;;;-4.30;99.90;-2.70;95138.00;;;;4965032;28;20444;-71
2024/01/15 07:13:27;;;;;;;11.43;7.27;;;-4.30;99.90;-2.50;95140.00;;;;4960002;28;20473;-70
2024/01/15 07:16:17;;;;;;;15.57;10.00;;;-4.30;99.90;-2.70;95131.00;;;;4964155;28;20444;-71
2024/01/15 07:19:13;;;;;;;22.20;13.37;;;-4.30;99.90;-2.60;95143.00;;;;4964214;28;20442;-70
2024/01/15 07:22:02;;;;;;;3.33;2.27;;;-4.00;99.90;-2.70;95133.00;;;;4994431;28;20472;-71
2024/01/15 07:24:51;;;;;;;3.03;2.27;;;-4.30;99.90;-3.50;95154.00;;;;5003599;28;21301;-72
2024/01/15 07:27:42;;;;;;;2.77;2.27;;;-4.40;99.90;-3.40;95152.00;;;;5003846;28;20440;-71
2024/01/15 07:30:32;;;;;;;4.17;3.20;;;-4.50;99.90;-3.70;95152.00;;;;5000174;28;20441;-69
2024/01/15 07:33:21;;;;;;;4.50;3.20;;;-4.50;99.90;-3.50;95165.00;;;;4999310;28;20484;-70
2024/01/15 07:36:10;;;;;;;3.57;2.60;;;-4.50;99.90;-2.80;95143.00;;;;5001140;28;20426;-70
2024/01/15 07:38:59;;;;;;;2.70;2.20;;;-4.40;99.90;-2.30;95146.00;;;;5004164;28;20438;-72
2024/01/15 07:41:48;;;;;;;5.30;3.57;;;-4.30;99.90;-2.30;95149.00;;;;4998966;28;20823;-71
2024/01/15 07:44:37;;;;;;;6.53;4.00;;;-4.10;99.90;-2.40;95142.00;;;;5005054;28;20421;-70
2024/01/15 07:47:27;;;;;;;4.47;2.97;;;-4.00;99.90;-2.50;95151.00;;;;5000065;28;20452;-71
2024/01/15 07:50:16;;;;;;;4.30;2.83;;;-3.90;99.90;-2.50;95148.00;;;;5004704;28;20811;-72
2024/01/15 07:53:05;;;;;;;3.17;2.23;;;-3.90;99.90;-2.70;95144.00;;;;5004055;28;20444;-70
2024/01/15 07:55:54;;;;;;;3.80;2.57;;;-3.90;99.90;-2.70;95132.00;;;;5007597;28;20449;-71
2024/01/15 07:58:43;;;;;;;4.27;2.80;;;-4.00;99.90;-2.40;95144.00;;;;5002001;28;20416;-71
2024/01/15 08:01:32;;;;;;;4.53;3.30;;;-3.90;99.90;-1.60;95155.00;;;;5000469;28;20461;-72
2024/01/15 08:04:22;;;;;;;5.43;3.07;;;-3.80;99.90;-1.30;95158.00;;;;5003718;28;20421;-71
2024/01/15 08:07:13;;;;;;;3.37;2.20;;;-3.60;99.90;-1.20;95168.00;;;;5006411;28;20425;-70
2024/01/15 08:10:01;;;;;;;3.67;2.27;;;-3.50;99.90;-1.00;95178.00;;;;5000556;28;20433;-70
2024/01/15 08:12:50;;;;;;;3.83;2.43;;;-3.20;99.90;-1.20;95176.00;;;;5005838;28;21359;-73
2024/01/15 08:15:39;;;;;;;3.27;2.23;;;-3.10;99.90;-1.10;95170.00;;;;5005968;28;20457;-70
2024/01/15 08:18:28;;;;;;;5.43;3.40;;;-3.00;99.90;-0.70;95168.00;;;;5005857;28;20429;-71
2024/01/15 08:21:19;;;;;;;3.60;2.17;;;-2.90;99.90;-0.20;95176.00;;;;4999538;28;20912;-71
2024/01/15 08:24:08;;;;;;;3.37;2.07;;;-2.70;99.90;-1.50;95172.00;;;;5006671;28;20425;-72
2024/01/15 08:26:57;;;;;;;3.70;2.33;;;-2.60;99.90;-1.30;95167.00;;;;5009852;28;20799;-70
2024/01/15 08:29:45;;;;;;;3.73;2.40;;;-2.60;99.90;-0.80;95180.00;;;;5007306;28;20521;-71
2024/01/15 08:32:36;;;;;;;4.77;2.90;;;-2.60;99.90;-0.80;95180.00;;;;5007700;28;22128;-73
2024/01/15 08:35:28;;;;;;;5.77;3.37;;;-2.50;99.90;-0.90;95180.00;;;;5008966;28;20488;-72
2024/01/15 08:38:20;;;;;;;5.43;3.23;;;-2.50;99.90;-1.30;95163.00;;;;5006962;28;20804;-71
2024/01/15 08:41:09;;;;;;;3.27;2.07;;;-2.60;99.90;-1.50;95172.00;;;;5010337;28;20429;-72
2024/01/15 08:43:58;;;;;;;5.53;3.13;;;-2.70;99.90;-1.30;95162.00;;;;5002371;28;20795;-72
2024/01/15 08:46:47;;;;;;;2.60;1.90;;;-2.70;99.90;-1.60;95170.00;;;;5009700;28;20437;-71
2024/01/15 08:49:36;;;;;;;3.43;2.13;;;-2.70;99.90;-1.40;95165.00;;;;5008543;28;20422;-72
2024/01/15 08:52:25;;;;;;;7.30;4.17;;;-2.70;99.90;-1.00;95175.00;;;;5007805;28;20471;-71
2024/01/15 08:55:15;;;;;;;3.03;1.90;;;-2.50;99.90;-0.30;95193.00;;;;5005694;28;20467;-71
2024/01/15 08:58:04;;;;;;;5.53;3.17;;;-2.40;99.90;0.50;95191.00;;;;5003965;28;20433;-71
2024/01/15 09:00:54;;;;;;;4.63;2.57;;;-2.10;99.90;0.20;95186.00;;;;5009281;28;20433;-72
2024/01/15 09:03:43;;;;;;;4.60;2.67;;;-1.90;99.90;0.00;95170.00;;;;5003968;28;20436;-72
2024/01/15 09:06:33;;;;;;;5.23;3.00;;;-1.80;99.90;0.40;95184.00;;;;5009409;28;20434;-72
2024/01/15 09:09:22;;;;;;;6.20;3.33;;;-1.70;99.90;0.90;95170.00;;;;5006813;28;21095;-72
2024/01/15 09:12:15;;;;;;;3.73;2.03;;;-1.50;99.90;1.40;95171.00;;;;5004599;28;20453;-71
2024/01/15 09:15:05;;;;;;;4.90;2.63;;;-1.30;99.90;1.60;95175.00;;;;5010390;28;20457;-72
2024/01/15 09:17:54;;;;;;;4.63;2.50;;;-1.10;99.90;0.90;95174.00;;;;5012089;28;20432;-72
2024/01/15 09:20:42;;;;;;;5.23;2.70;;;-1.00;99.90;0.50;95176.00;;;;5007973;28;20795;-71
2024/01/15 09:23:31;;;;;;;7.87;4.20;;;-1.00;99.90;0.30;95167.00;;;;5014572;28;20432;-68
2024/01/15 09:26:20;;;;;;;6.77;3.40;;;-1.00;99.90;0.50;95174.00;;;;5010013;28;21173;-71
2024/01/15 09:29:10;;;;;;;4.87;2.57;;;-1.00;99.90;1.20;95178.00;;;;5012699;28;20421;-72
2024/01/15 09:31:59;;;;;;;4.60;2.57;;;-1.00;99.90;1.50;95171.00;;;;5013367;28;20472;-71
2024/01/15 09:34:48;;;;;;;6.00;3.13;;;-0.80;99.90;1.80;95168.00;;;;5013086;28;20460;-71
2024/01/15 09:37:37;;;;;;;4.53;2.43;;;-0.60;99.90;2.00;95166.00;;;;5013541;28;20436;-72
2024/01/15 09:40:34;;;;;;;7.57;3.90;;;-0.40;99.90;2.50;95162.00;;;;5011074;28;20422;-70
2024/01/15 09:43:23;;;;;;;6.13;3.33;;;-0.20;99.90;2.40;95155.00;;;;5000133;28;21027;-72
2024/01/15 09:46:14;;;;;;;3.40;1.83;;;0.00;99.90;2.80;95168.00;;;;5003629;28;21047;-72
2024/01/15 09:49:04;;;;;;;4.97;2.57;;;0.10;99.90;3.30;95183.00;;;;5005326;28;20438;-70
2024/01/15 09:51:54;;;;;;;9.20;4.50;;;0.40;99.90;3.90;95175.00;;;;5004826;28;20444;-70
2024/01/15 09:54:45;;;;;;;9.77;4.60;;;0.70;99.90;4.30;95178.00;;;;5001746;28;20458;-71
2024/01/15 09:57:35;;;;;;;6.63;3.43;;;1.00;99.90;4.30;95187.00;;;;5008290;28;20440;-71
2024/01/15 10:00:25;;;;;;;7.23;3.47;;;1.40;99.90;3.70;95164.00;;;;5004714;28;20513;-71
2024/01/15 10:03:15;;;;;;;4.47;2.37;;;1.60;99.90;3.80;95162.00;;;;5000487;28;20461;-71
2024/01/15 10:06:06;;;;;;;4.70;2.37;;;1.60;99.90;4.20;95150.00;;;;5010976;28;20428;-71
2024/01/15 10:08:58;;;;;;;5.87;2.93;;;1.80;99.90;3.90;95157.00;;;;5009777;28;20430;-71
2024/01/15 10:11:46;;;;;;;8.83;4.33;;;1.80;99.90;4.50;95155.00;;;;5011913;28;20467;-69
2024/01/15 10:14:36;;;;;;;8.97;4.47;;;1.90;99.90;4.90;95165.00;;;;5004871;28;20421;-69
2024/01/15 10:17:27;;;;;;;7.60;3.77;;;2.00;99.90;5.40;95151.00;;;;5013744;28;20444;-71
2024/01/15 10:20:17;;;;;;;4.03;2.30;;;2.30;99.90;5.70;95152.00;;;;5009849;28;20218;-69
2024/01/15 10:23:06;;;;;;;3.67;2.03;;;2.50;99.90;5.20;95137.00;;;;5007287;28;20244;-70
2024/01/15 10:25:57;;;;;;;3.07;1.70;;;2.70;99.90;5.20;95140.00;;;;5010765;28;20200;-69
2024/01/15 10:28:46;;;;;;;2.33;1.47;;;2.90;99.90;6.10;95151.00;;;;5012050;28;20384;-71
2024/01/15 10:31:35;;;;;;;6.90;3.57;;;3.00;99.90;6.80;95148.00;;;;5014081;28;20229;-71
2024/01/15 10:34:24;;;;;;;5.27;2.77;;;3.30;99.90;7.10;95146.00;;;;5011072;28;20206;-71
2024/01/15 10:37:15;;;;;;;3.87;1.97;;;3.20;99.90;7.70;95142.00;;;;5012024;28;20202;-71
2024/01/15 10:40:06;;;;;;;4.07;2.03;;;5.10;99.90;7.40;95133.00;;;;5010478;28;20221;-71
2024/01/15 10:42:54;;;;;;;1.50;0.90;;;6.30;99.90;9.10;95140.00;;;;5010285;28;20225;-73
2024/01/15 10:45:44;;;;;;;9.07;4.17;;;7.50;99.90;10.00;95131.00;;;;5006368;28;20198;-72
2024/01/15 10:48:35;;;;;;;8.67;4.03;;;8.80;97.20;10.80;95136.00;;;;5006066;28;20202;-72
2024/01/15 10:51:25;;;;;;;9.90;4.33;;;9.70;94.70;11.90;95138.00;;;;5006551;28;20742;-71
2024/01/15 10:54:16;;;;;;;5.70;2.57;;;;;11.50;95141.00;;;;5010099;28;20202;-72
2024/01/15 10:57:06;;;;;;;6.27;2.70;;;;;11.50;95147.00;;;;5006858;28;20574;-72
2024/01/15 10:59:55;;;;;;;6.47;2.60;;;;;10.80;95140.00;;;;5007064;28;20206;-73
2024/01/15 11:02:44;;;;;;;4.47;2.00;;;;;10.60;95118.00;;;;5010463;28;20233;-71
2024/01/15 11:05:35;;;;;;;10.23;4.37;;;;;11.80;95121.00;;;;5003631;28;20222;-72
2024/01/15 11:08:26;;;;;;;12.47;5.17;;;;;11.60;95124.00;;;;5002236;28;20202;-71
2024/01/15 11:11:17;;;;;;;6.27;2.87;;;;;10.30;95113.00;;;;5003901;28;20587;-71
2024/01/15 11:14:06;;;;;;;3.30;1.50;;;;;10.30;95125.00;;;;4998366;28;20206;-71
2024/01/15 11:16:59;;;;;;;7.33;3.20;;;;;11.40;95116.00;;;;5009331;28;20671;-71
2024/01/15 11:19:50;;;;;;;7.03;2.97;;;;;12.50;95124.00;;;;5007301;28;20206;-71
2024/01/15 11:22:59;;;;;;;7.83;3.20;;;;;12.70;95114.00;;;;5001653;28;20308;-72
2024/01/15 11:25:48;;;;;;;7.83;3.23;;;;;13.00;95113.00;;;;5004928;28;20237;-71
2024/01/15 11:28:50;;;;;;;8.80;3.67;;;;;13.70;95120.00;;;;4997949;28;21184;-71
2024/01/15 11:32:04;;;;;;;13.50;5.33;;;;;11.90;95116.00;;;;5003035;28;20265;-73
2024/01/15 11:35:01;;;;;;;8.00;3.30;;;;;12.60;95122.00;;;;4990812;28;20695;-71
2024/01/15 11:38:08;;;;;;;6.93;2.90;;;;;12.40;95132.00;;;;5002447;28;20210;-72
2024/01/15 11:40:58;;;;;;;7.53;3.03;;;;;12.50;95131.00;;;;4997625;28;20206;-71
2024/01/15 11:43:47;;;;;;;6.13;2.50;;;;;12.50;95118.00;;;;4994744;28;20202;-70
2024/01/15 11:46:44;;;;;;;13.67;5.20;;;;;12.30;95124.00;;;;4993306;28;20317;-71
2024/01/15 11:49:56;;;;;;;14.30;5.40;;;;;12.20;95122.00;;;;5006308;28;20210;-69
2024/01/15 11:52:49;;;;;;;7.50;3.27;;;;;12.40;95116.00;;;;5005339;28;20230;-69
2024/01/15 11:55:41;;;;;;;16.37;6.23;;;;;12.40;95114.00;;;;4995990;28;20202;-69
2024/01/15 11:58:30;;;;;;;20.80;8.43;;;;;11.90;95103.00;;;;5008668;28;20209;-70
2024/01/15 12:01:20;;;;;;;14.90;6.37;;;;;11.40;95095.00;;;;4999696;28;20585;-69
2024/01/15 12:04:13;;;;;;;13.17;5.53;;;;;12.00;95096.00;;;;4993384;28;20209;-69
2024/01/15 12:07:03;;;;;;;22.47;8.57;;;;;12.50;95101.00;;;;5001508;28;20830;-68
2024/01/15 12:09:52;;;;;;;15.00;6.87;;;;;12.50;95101.00;;;;5008103;28;20201;-70
2024/01/15 12:12:55;;;;;;;16.43;7.53;;;;;12.20;95092.00;;;;5011244;28;20865;-70
2024/01/15 12:15:45;;;;;;;10.13;6.37;;;;;12.60;95094.00;;;;5011308;28;20198;-69
2024/01/15 12:18:35;;;;;;;23.40;10.07;;;;;12.50;95083.00;;;;5006638;28;20202;-69
2024/01/15 12:21:28;;;;;;;25.50;13.20;;;;;12.80;95098.00;;;;4998447;28;20233;-69
2024/01/15 12:24:19;;;;;;;13.73;8.70;;;;;13.10;95092.00;;;;5009035;28;20205;-68
2024/01/15 12:27:09;;;;;;;18.43;16.60;;;;;13.10;95091.00;;;;5002298;28;20228;-69
2024/01/15 12:29:59;;;;;;;19.07;17.30;;;;;12.60;95088.00;;;;5010433;28;20222;-68
2024/01/15 12:32:48;;;;;;;19.03;17.10;;;;;13.10;95086.00;;;;5009920;28;20233;-69
2024/01/15 12:35:37;;;;;;;28.30;20.30;;;;;13.30;95072.00;;;;5004869;28;20206;-69
2024/01/15 12:38:30;;;;;;;31.90;24.23;;;;;14.10;95071.00;;;;4994612;28;20209;-68
2024/01/15 12:41:19;;;;;;;30.87;28.43;;;;;13.80;95080.00;;;;5006415;28;20242;-68
2024/01/15 12:44:08;;;;;;;30.90;28.33;;;;;13.70;95069.00;;;;5004665;28;20228;-69
2024/01/15 12:46:57;;;;;;;31.93;29.67;;;;;14.20;95081.00;;;;5005182;28;20242;-69